createdAt,value
2022-11-17T00:00:43.300Z,24.52
2022-11-17T00:03:21.363Z,22.48
2022-11-17T00:05:47.928Z,23.60
2022-11-17T00:08:14.555Z,23.38
2022-11-17T00:10:41.245Z,23.83
2022-11-17T00:13:29.791Z,23.35
2022-11-17T00:15:59.390Z,24.20
2022-11-17T00:18:44.645Z,22.55
2022-11-17T00:21:23.880Z,23.63
2022-11-17T00:23:51.008Z,23.70
2022-11-17T00:26:26.535Z,24.05
2022-11-17T00:28:54.907Z,24.92
2022-11-17T00:31:47.478Z,25.00
2022-11-17T00:34:22.287Z,24.58
2022-11-17T00:36:54.200Z,24.17
2022-11-17T00:41:49.398Z,24.42
2022-11-17T00:44:16.551Z,26.42
2022-11-17T00:46:47.799Z,25.80
2022-11-17T00:49:26.541Z,26.65
2022-11-17T00:51:53.852Z,26.95
2022-11-17T00:54:21.177Z,27.35
2022-11-17T00:56:48.256Z,26.30
2022-11-17T00:59:19.761Z,26.00
2022-11-17T01:01:50.198Z,27.23
2022-11-17T01:04:17.031Z,29.33
2022-11-17T01:06:49.100Z,25.88
2022-11-17T01:09:21.778Z,27.52
2022-11-17T01:11:50.149Z,28.35
2022-11-17T01:14:25.808Z,26.63
2022-11-17T01:16:53.378Z,25.73
2022-11-17T01:19:21.951Z,25.83
2022-11-17T01:21:48.771Z,24.75
2022-11-17T01:24:16.918Z,25.73
2022-11-17T01:26:44.961Z,24.90
2022-11-17T01:29:15.556Z,25.77
2022-11-17T01:31:49.418Z,26.02
2022-11-17T01:34:18.653Z,26.13
2022-11-17T01:37:03.917Z,26.23
2022-11-17T01:39:32.341Z,24.83
2022-11-17T01:42:04.009Z,24.90
2022-11-17T01:45:07.800Z,25.40
2022-11-17T01:47:40.787Z,27.23
2022-11-17T01:50:15.619Z,26.77
2022-11-17T01:52:43.776Z,25.00
2022-11-17T01:55:17.941Z,25.92
2022-11-17T01:58:08.971Z,26.27
2022-11-17T02:00:35.750Z,26.38
2022-11-17T02:03:02.906Z,25.02
2022-11-17T02:05:35.081Z,24.23
2022-11-17T02:08:06.011Z,25.05
2022-11-17T02:10:34.473Z,26.98
2022-11-17T02:13:01.433Z,26.13
2022-11-17T02:15:31.374Z,26.30
2022-11-17T02:17:59.518Z,25.90
2022-11-17T02:20:48.065Z,25.63
2022-11-17T02:23:17.241Z,25.65
2022-11-17T02:25:55.967Z,26.45
2022-11-17T02:28:28.874Z,24.58
2022-11-17T02:31:17.016Z,25.58
2022-11-17T02:34:15.581Z,25.38
2022-11-17T02:36:57.348Z,26.00
2022-11-17T02:39:54.157Z,26.27
2022-11-17T02:43:03.732Z,25.58
2022-11-17T02:45:42.310Z,26.13
2022-11-17T02:48:25.480Z,27.02
2022-11-17T02:50:54.218Z,26.38
2022-11-17T02:53:24.373Z,26.20
2022-11-17T02:55:52.729Z,27.30
2022-11-17T02:58:19.846Z,26.55
2022-11-17T03:01:07.666Z,26.10
2022-11-17T03:03:59.092Z,25.75
2022-11-17T03:06:36.089Z,26.40
2022-11-17T03:09:21.430Z,25.67
2022-11-17T03:12:16.295Z,27.45
2022-11-17T03:15:16.898Z,26.55
2022-11-17T03:18:09.874Z,25.95
2022-11-17T03:21:03.297Z,27.42
2022-11-17T03:23:56.601Z,25.33
2022-11-17T03:26:33.666Z,26.05
2022-11-17T03:29:09.282Z,26.25
2022-11-17T03:31:38.710Z,26.85
2022-11-17T03:34:10.100Z,27.48
2022-11-17T03:36:45.566Z,26.13
2022-11-17T03:39:37.252Z,27.40
2022-11-17T03:42:24.255Z,27.83
2022-11-17T03:45:16.042Z,27.65
2022-11-17T03:47:44.309Z,26.55
2022-11-17T03:50:26.739Z,28.38
2022-11-17T03:52:54.128Z,26.35
2022-11-17T03:55:26.758Z,26.17
2022-11-17T03:57:57.232Z,27.65
2022-11-17T04:00:24.177Z,28.20
2022-11-17T04:02:55.665Z,26.33
2022-11-17T04:05:30.665Z,27.85
2022-11-17T04:08:05.015Z,27.35
2022-11-17T04:10:31.703Z,28.95
2022-11-17T04:13:26.565Z,27.80
2022-11-17T04:15:59.473Z,28.15
2022-11-17T04:18:27.214Z,26.93
2022-11-17T04:21:00.442Z,27.98
2022-11-17T04:23:36.981Z,27.80
2022-11-17T04:26:30.797Z,28.90
2022-11-17T04:28:57.690Z,27.00
2022-11-17T04:31:35.882Z,28.20
2022-11-17T04:34:04.977Z,27.08
2022-11-17T04:36:36.017Z,26.77
2022-11-17T04:39:03.435Z,27.50
2022-11-17T04:41:48.575Z,28.33
2022-11-17T04:44:16.963Z,26.88
2022-11-17T04:46:46.159Z,27.45
2022-11-17T04:49:18.110Z,27.60
2022-11-17T04:51:45.326Z,29.80
2022-11-17T04:54:20.550Z,28.35
2022-11-17T04:56:56.620Z,28.52
2022-11-17T04:59:31.215Z,30.45
2022-11-17T05:02:06.227Z,26.75
2022-11-17T05:04:52.711Z,27.92
2022-11-17T05:07:27.457Z,27.73
2022-11-17T05:09:54.946Z,30.95
2022-11-17T05:12:44.970Z,28.58
2022-11-17T05:15:42.316Z,28.17
2022-11-17T05:18:09.632Z,26.90
2022-11-17T05:20:36.167Z,28.17
2022-11-17T05:23:21.311Z,28.02
2022-11-17T05:25:48.270Z,28.35
2022-11-17T05:28:14.942Z,28.77
2022-11-17T05:30:50.357Z,28.58
2022-11-17T05:33:27.262Z,30.38
2022-11-17T05:35:58.596Z,29.02
2022-11-17T05:38:25.190Z,28.20
2022-11-17T05:40:51.797Z,29.55
2022-11-17T05:43:18.600Z,30.02
2022-11-17T05:45:47.617Z,29.90
2022-11-17T05:48:17.887Z,31.13
2022-11-17T05:50:44.810Z,29.65
2022-11-17T05:53:11.590Z,28.88
2022-11-17T05:55:38.344Z,29.45
2022-11-17T05:58:12.654Z,30.85
2022-11-17T06:00:42.418Z,30.00
2022-11-17T06:03:18.933Z,30.27
2022-11-17T06:05:57.625Z,30.02
2022-11-17T06:08:33.307Z,31.30
2022-11-17T06:11:14.483Z,29.63
2022-11-17T06:13:49.248Z,30.15
2022-11-17T06:16:21.768Z,33.25
2022-11-17T06:18:54.912Z,33.65
2022-11-17T06:21:43.113Z,30.98
2022-11-17T06:24:28.123Z,29.60
2022-11-17T06:27:14.712Z,30.00
2022-11-17T06:29:44.879Z,31.92
2022-11-17T06:32:14.333Z,30.10
2022-11-17T06:34:49.189Z,31.35
2022-11-17T06:37:28.379Z,32.22
2022-11-17T06:39:55.346Z,35.08
2022-11-17T06:42:47.780Z,33.08
2022-11-17T06:45:25.698Z,31.90
2022-11-17T06:47:57.829Z,32.60
2022-11-17T06:50:26.075Z,31.85
2022-11-17T06:52:57.131Z,32.47
2022-11-17T06:55:23.967Z,32.90
2022-11-17T06:58:06.382Z,32.13
2022-11-17T07:00:34.472Z,34.38
2022-11-17T07:03:05.692Z,32.10
2022-11-17T07:05:40.278Z,34.05
2022-11-17T07:08:08.492Z,30.80
2022-11-17T07:10:48.057Z,32.42
2022-11-17T07:13:17.219Z,32.03
2022-11-17T07:15:44.698Z,30.55
2022-11-17T07:18:19.246Z,28.23
2022-11-17T07:20:52.098Z,29.88
2022-11-17T07:23:18.930Z,32.38
2022-11-17T07:25:53.723Z,31.95
2022-11-17T07:28:21.205Z,30.88
2022-11-17T07:30:54.939Z,31.05
2022-11-17T07:33:30.922Z,29.77
2022-11-17T07:36:16.593Z,31.73
2022-11-17T07:38:51.342Z,31.88
2022-11-17T07:41:28.955Z,31.08
2022-11-17T07:44:05.074Z,31.63
2022-11-17T07:46:41.416Z,32.60
2022-11-17T07:49:16.467Z,31.92
2022-11-17T07:52:00.025Z,30.10
2022-11-17T07:54:35.159Z,29.52
2022-11-17T07:57:10.283Z,30.58
2022-11-17T07:59:45.038Z,30.75
2022-11-17T08:02:11.742Z,27.10
2022-11-17T08:04:46.774Z,30.15
2022-11-17T08:07:22.131Z,29.88
2022-11-17T08:09:56.209Z,33.25
2022-11-17T08:12:24.541Z,38.38
2022-11-17T08:14:59.193Z,35.25
2022-11-17T08:17:26.038Z,30.33
2022-11-17T08:19:52.727Z,29.40
2022-11-17T08:22:27.045Z,28.50
2022-11-17T08:25:01.936Z,29.83
2022-11-17T08:27:29.192Z,26.67
2022-11-17T08:29:55.995Z,27.30
2022-11-17T08:32:31.002Z,28.98
2022-11-17T08:35:00.949Z,30.05
2022-11-17T08:37:31.101Z,30.63
2022-11-17T08:40:05.881Z,32.05
2022-11-17T08:42:41.861Z,31.30
2022-11-17T08:45:17.062Z,30.58
2022-11-17T08:47:50.969Z,27.08
2022-11-17T08:50:25.729Z,29.67
2022-11-17T08:53:02.565Z,32.47
2022-11-17T08:55:29.828Z,29.80
2022-11-17T08:58:07.972Z,31.67
2022-11-17T09:00:43.309Z,32.70
2022-11-17T09:03:18.379Z,34.72
2022-11-17T09:05:53.516Z,32.05
2022-11-17T09:08:50.186Z,33.50
2022-11-17T09:11:26.145Z,34.28
2022-11-17T09:14:05.126Z,33.95
2022-11-17T09:16:39.824Z,34.38
2022-11-17T09:19:11.199Z,34.35
2022-11-17T09:21:37.870Z,34.83
2022-11-17T09:24:12.467Z,35.30
2022-11-17T09:26:54.659Z,34.88
2022-11-17T09:29:30.346Z,34.28
2022-11-17T09:32:07.330Z,34.85
2022-11-17T09:34:39.575Z,36.03
2022-11-17T09:37:07.762Z,31.17
2022-11-17T09:39:44.127Z,37.97
2022-11-17T09:42:18.931Z,35.70
2022-11-17T09:45:12.278Z,35.80
2022-11-17T09:48:25.870Z,33.88
2022-11-17T09:51:00.050Z,35.67
2022-11-17T09:53:43.839Z,32.20
2022-11-17T09:56:13.375Z,36.40
2022-11-17T09:58:50.170Z,37.67
2022-11-17T10:01:30.774Z,34.83
2022-11-17T10:04:01.564Z,31.58
2022-11-17T10:06:32.546Z,41.20
2022-11-17T10:09:25.651Z,42.33
2022-11-17T10:12:07.972Z,42.10
2022-11-17T10:14:43.074Z,39.33
2022-11-17T10:17:21.647Z,35.30
2022-11-17T10:19:56.666Z,36.88
2022-11-17T10:22:38.585Z,34.10
2022-11-17T10:25:22.962Z,30.00
2022-11-17T10:27:57.836Z,35.30
2022-11-17T10:30:26.079Z,27.50
2022-11-17T10:33:26.646Z,37.75
2022-11-17T10:36:08.439Z,36.40
2022-11-17T10:38:58.847Z,39.08
2022-11-17T10:42:03.256Z,38.58
2022-11-17T10:44:44.577Z,35.03
2022-11-17T10:47:35.972Z,37.88
2022-11-17T10:50:29.075Z,39.28
2022-11-17T10:53:42.899Z,33.50
2022-11-17T10:56:39.401Z,34.42
2022-11-17T10:59:45.906Z,28.83
2022-11-17T11:02:35.261Z,35.00
2022-11-17T11:05:17.511Z,34.25
2022-11-17T11:07:52.267Z,27.05
2022-11-17T11:10:36.019Z,37.33
2022-11-17T11:13:21.506Z,39.67
2022-11-17T11:15:49.898Z,28.00
2022-11-17T11:18:18.955Z,28.60
2022-11-17T11:21:04.862Z,39.30
2022-11-17T11:23:45.732Z,37.35
2022-11-17T11:26:12.353Z,33.38
2022-11-17T11:29:00.903Z,32.35
2022-11-17T11:31:32.374Z,31.88
2022-11-17T11:34:11.119Z,34.78
2022-11-17T11:36:44.549Z,29.08
2022-11-17T11:39:30.989Z,28.15
2022-11-17T11:42:34.764Z,26.02
2022-11-17T11:45:52.856Z,35.05
2022-11-17T11:48:33.958Z,26.02
2022-11-17T11:51:11.945Z,25.23
2022-11-17T11:53:55.307Z,28.88
2022-11-17T11:56:35.801Z,36.10
2022-11-17T11:59:06.694Z,28.58
2022-11-17T12:02:02.828Z,26.10
2022-11-17T12:04:47.973Z,25.60
2022-11-17T12:07:23.621Z,24.58
2022-11-17T12:10:31.952Z,30.83
2022-11-17T12:12:59.208Z,34.70
2022-11-17T12:15:26.479Z,28.23
2022-11-17T12:17:57.134Z,36.08
2022-11-17T12:20:39.224Z,28.10
2022-11-17T12:23:37.900Z,27.42
2022-11-17T12:26:05.573Z,29.77
2022-11-17T12:28:36.241Z,34.22
2022-11-17T12:31:10.148Z,25.50
2022-11-17T12:34:02.179Z,27.63
2022-11-17T12:36:34.036Z,26.00
2022-11-17T12:39:39.366Z,25.88
2022-11-17T12:42:10.800Z,26.73
2022-11-17T12:44:50.735Z,26.10
2022-11-17T12:47:30.306Z,24.60
2022-11-17T12:50:23.427Z,25.05
2022-11-17T12:53:14.884Z,29.27
2022-11-17T12:55:55.764Z,26.30
2022-11-17T12:58:27.333Z,33.65
2022-11-17T13:01:12.709Z,27.80
2022-11-17T13:04:04.936Z,25.02
2022-11-17T13:09:12.417Z,32.90
2022-11-17T13:11:39.123Z,25.52
2022-11-17T13:14:19.731Z,29.23
2022-11-17T13:16:53.927Z,32.78
2022-11-17T13:19:41.795Z,26.23
2022-11-17T13:22:11.600Z,25.90
2022-11-17T13:24:41.200Z,29.33
2022-11-17T13:27:26.416Z,24.67
2022-11-17T13:30:12.647Z,27.45
2022-11-17T13:32:43.705Z,31.65
2022-11-17T13:35:28.827Z,25.35
2022-11-17T13:38:05.713Z,33.15
2022-11-17T13:40:37.207Z,26.10
2022-11-17T13:43:05.928Z,25.85
2022-11-17T13:45:34.589Z,24.48
2022-11-17T13:48:01.750Z,31.13
2022-11-17T13:50:31.584Z,31.40
2022-11-17T13:53:06.220Z,29.95
2022-11-17T13:55:34.257Z,29.10
2022-11-17T13:58:05.159Z,29.65
2022-11-17T14:00:33.703Z,27.53
2022-11-17T14:03:27.613Z,27.33
2022-11-17T14:06:00.976Z,26.85
2022-11-17T14:08:41.897Z,30.50
2022-11-17T14:11:11.421Z,30.40
2022-11-17T14:13:46.857Z,31.27
2022-11-17T14:16:37.036Z,37.05
2022-11-17T14:19:16.084Z,30.52
2022-11-17T14:22:04.848Z,33.95
2022-11-17T14:24:32.818Z,32.25
2022-11-17T14:27:01.986Z,33.13
2022-11-17T14:29:29.547Z,37.35
2022-11-17T14:31:56.922Z,38.35
2022-11-17T14:34:24.724Z,33.72
2022-11-17T14:36:55.153Z,33.50
2022-11-17T14:39:23.501Z,36.33
2022-11-17T14:41:51.591Z,34.83
2022-11-17T14:44:18.368Z,46.95
2022-11-17T14:46:46.879Z,37.33
2022-11-17T14:49:14.050Z,44.90
2022-11-17T14:51:40.997Z,36.85
2022-11-17T14:54:07.715Z,50.75
2022-11-17T14:56:35.460Z,54.65
2022-11-17T14:59:04.169Z,38.20
2022-11-17T15:01:34.832Z,44.10
2022-11-17T15:04:27.360Z,40.72
2022-11-17T15:06:51.830Z,49.97
2022-11-17T15:09:20.571Z,43.67
2022-11-17T15:11:52.012Z,68.43
2022-11-17T15:14:21.678Z,43.58
2022-11-17T15:16:50.766Z,55.13
2022-11-17T15:19:20.040Z,45.65
2022-11-17T15:21:46.923Z,46.95
2022-11-17T15:24:14.019Z,70.57
2022-11-17T15:26:40.891Z,48.22
2022-11-17T15:29:07.528Z,64.50
2022-11-17T15:31:40.533Z,51.33
2022-11-17T15:34:09.464Z,49.40
2022-11-17T15:36:38.864Z,48.40
2022-11-17T15:39:06.079Z,50.83
2022-11-17T15:41:33.271Z,49.45
2022-11-17T15:44:00.111Z,53.53
2022-11-17T15:46:46.939Z,49.88
2022-11-17T15:49:17.687Z,50.90
2022-11-17T15:51:44.772Z,50.60
2022-11-17T15:54:18.189Z,59.50
2022-11-17T15:56:46.600Z,51.03
2022-11-17T15:59:21.354Z,63.00
2022-11-17T16:01:48.103Z,50.63
2022-11-17T16:04:16.045Z,61.28
2022-11-17T16:06:44.982Z,50.20
2022-11-17T16:09:28.431Z,58.78
2022-11-17T16:11:55.123Z,51.08
2022-11-17T16:14:21.669Z,57.75
2022-11-17T16:16:51.436Z,50.30
2022-11-17T16:19:19.428Z,48.17
2022-11-17T16:21:46.007Z,56.25
2022-11-17T16:24:19.961Z,57.00
2022-11-17T16:26:49.885Z,57.67
2022-11-17T16:29:20.181Z,55.65
2022-11-17T16:31:47.153Z,57.90
2022-11-17T16:34:15.815Z,57.67
2022-11-17T16:36:44.050Z,57.65
2022-11-17T16:39:13.555Z,59.17
2022-11-17T16:41:42.980Z,57.83
2022-11-17T16:44:16.923Z,57.58
2022-11-17T16:46:46.013Z,56.40
2022-11-17T16:49:18.496Z,58.90
2022-11-17T16:51:54.962Z,60.60
2022-11-17T16:54:32.013Z,60.58
2022-11-17T16:57:05.106Z,59.10
2022-11-17T16:59:31.712Z,59.15
2022-11-17T17:02:01.588Z,60.13
2022-11-17T17:04:37.223Z,59.13
2022-11-17T17:07:03.908Z,57.58
2022-11-17T17:09:30.773Z,55.35
2022-11-17T17:12:00.354Z,58.63
2022-11-17T17:14:30.501Z,60.80
2022-11-17T17:16:57.675Z,59.05
2022-11-17T17:19:25.036Z,61.90
2022-11-17T17:21:51.889Z,60.42
2022-11-17T17:24:18.629Z,62.85
2022-11-17T17:26:45.202Z,60.60
2022-11-17T17:29:14.902Z,61.25
2022-11-17T17:31:42.595Z,62.70
2022-11-17T17:34:11.965Z,61.65
2022-11-17T17:36:38.734Z,62.58
2022-11-17T17:39:06.284Z,59.13
2022-11-17T17:41:39.836Z,61.42
2022-11-17T17:44:07.948Z,60.08
2022-11-17T17:46:37.551Z,60.03
2022-11-17T17:49:05.231Z,56.45
2022-11-17T17:51:32.162Z,60.22
2022-11-17T17:54:04.850Z,62.35
2022-11-17T17:56:33.640Z,54.00
2022-11-17T17:59:02.268Z,55.03
2022-11-17T18:01:31.076Z,58.65
2022-11-17T18:04:04.426Z,47.47
2022-11-17T18:06:36.031Z,52.65
2022-11-17T18:09:05.251Z,53.10
2022-11-17T18:11:35.180Z,57.60
2022-11-17T18:14:01.883Z,59.42
2022-11-17T18:16:32.115Z,58.08
2022-11-17T18:19:01.124Z,67.40
2022-11-17T18:21:30.756Z,64.40
2022-11-17T18:24:07.364Z,62.60
2022-11-17T18:26:35.864Z,61.33
2022-11-17T18:29:08.524Z,62.90
2022-11-17T18:31:37.058Z,62.45
2022-11-17T18:34:14.623Z,63.55
2022-11-17T18:36:41.648Z,63.42
2022-11-17T18:39:09.149Z,58.22
2022-11-17T18:41:38.981Z,62.33
2022-11-17T18:44:05.633Z,65.03
2022-11-17T18:46:35.835Z,63.70
2022-11-17T18:49:02.702Z,52.22
2022-11-17T18:51:34.466Z,58.05
2022-11-17T18:56:41.436Z,56.83
2022-11-17T18:59:11.863Z,61.13
2022-11-17T19:01:41.529Z,57.67
2022-11-17T19:04:08.692Z,57.75
2022-11-17T19:06:36.761Z,63.95
2022-11-17T19:09:30.648Z,64.40
2022-11-17T19:12:35.179Z,64.20
2022-11-17T19:15:25.574Z,60.42
2022-11-17T19:18:07.463Z,61.80
2022-11-17T19:23:41.869Z,57.70
2022-11-17T19:26:18.087Z,51.72
2022-11-17T19:28:54.251Z,60.15
2022-11-17T19:31:24.800Z,52.80
2022-11-17T19:33:53.528Z,57.90
2022-11-17T19:36:38.162Z,59.03
2022-11-17T19:39:17.281Z,52.40
2022-11-17T19:41:56.908Z,58.70
2022-11-17T19:44:23.846Z,48.08
2022-11-17T19:46:50.472Z,47.85
2022-11-17T19:49:17.263Z,55.35
2022-11-17T19:51:50.784Z,57.22
2022-11-17T19:54:18.072Z,59.85
2022-11-17T19:56:52.040Z,48.55
2022-11-17T19:59:19.000Z,49.08
2022-11-17T20:01:54.529Z,56.85
2022-11-17T20:04:29.279Z,56.80
2022-11-17T20:06:56.103Z,57.17
2022-11-17T20:09:24.894Z,48.85
2022-11-17T20:11:51.513Z,49.55
2022-11-17T20:14:26.596Z,50.45
2022-11-17T20:16:53.312Z,48.63
2022-11-17T20:19:22.172Z,55.92
2022-11-17T20:21:48.695Z,49.70
2022-11-17T20:24:20.388Z,49.80
2022-11-17T20:26:47.434Z,45.80
2022-11-17T20:29:14.649Z,50.70
2022-11-17T20:31:41.567Z,53.58
2022-11-17T20:34:13.674Z,56.47
2022-11-17T20:36:40.368Z,47.33
2022-11-17T20:39:10.197Z,48.88
2022-11-17T20:41:38.084Z,54.05
2022-11-17T20:44:13.438Z,51.40
2022-11-17T20:46:42.287Z,48.17
2022-11-17T20:49:09.290Z,56.95
2022-11-17T20:51:39.325Z,58.38
2022-11-17T20:54:12.396Z,51.22
2022-11-17T20:56:42.540Z,56.53
2022-11-17T20:59:09.379Z,57.13
2022-11-17T21:01:36.093Z,56.55
2022-11-17T21:04:14.565Z,58.47
2022-11-17T21:06:41.261Z,57.88
2022-11-17T21:09:09.103Z,57.90
2022-11-17T21:11:54.345Z,58.03
2022-11-17T21:14:31.584Z,55.55
2022-11-17T21:17:05.237Z,55.53
2022-11-17T21:19:41.256Z,48.72
2022-11-17T21:22:14.059Z,50.40
2022-11-17T21:24:41.123Z,56.55
2022-11-17T21:27:14.066Z,48.60
2022-11-17T21:29:40.815Z,54.08
2022-11-17T21:32:07.516Z,54.05
2022-11-17T21:34:41.430Z,47.90
2022-11-17T21:37:12.445Z,50.45
2022-11-17T21:39:46.177Z,55.97
2022-11-17T21:42:16.555Z,55.03
2022-11-17T21:44:43.814Z,50.28
2022-11-17T21:47:10.617Z,54.75
2022-11-17T21:49:37.342Z,54.90
2022-11-17T21:52:12.820Z,54.28
2022-11-17T21:54:41.274Z,53.30
2022-11-17T21:57:07.969Z,52.25
2022-11-17T21:59:35.171Z,57.70
2022-11-17T22:02:03.848Z,52.97
2022-11-17T22:04:49.472Z,54.47
2022-11-17T22:07:28.047Z,50.67
2022-11-17T22:09:56.438Z,53.08
2022-11-17T22:12:23.152Z,50.90
2022-11-17T22:14:58.860Z,50.28
2022-11-17T22:17:30.582Z,52.38
2022-11-17T22:20:06.983Z,51.55
2022-11-17T22:22:50.723Z,53.03
2022-11-17T22:25:43.590Z,53.22
2022-11-17T22:28:04.475Z,52.22
2022-11-17T22:30:31.451Z,49.78
2022-11-17T22:33:01.117Z,51.63
2022-11-17T22:35:33.921Z,52.35
2022-11-17T22:38:00.596Z,49.60
2022-11-17T22:40:27.807Z,48.78
2022-11-17T22:42:54.624Z,46.60
2022-11-17T22:45:31.519Z,44.53
2022-11-17T22:47:59.997Z,48.90
2022-11-17T22:50:27.533Z,43.25
2022-11-17T22:53:23.721Z,44.78
2022-11-17T22:55:58.267Z,42.90
2022-11-17T22:58:49.502Z,42.25
2022-11-17T23:01:25.951Z,41.78
2022-11-17T23:04:01.536Z,40.30
2022-11-17T23:06:29.016Z,40.28
2022-11-17T23:08:58.221Z,38.17
2022-11-17T23:11:37.771Z,36.38
2022-11-17T23:14:14.725Z,39.42
2022-11-17T23:16:56.507Z,38.75
2022-11-17T23:19:32.035Z,37.70
2022-11-17T23:22:07.391Z,34.60
2022-11-17T23:24:35.399Z,35.33
2022-11-17T23:27:02.803Z,36.28
2022-11-17T23:29:39.302Z,35.58
2022-11-17T23:32:14.931Z,34.55
2022-11-17T23:34:41.569Z,36.35
2022-11-17T23:37:13.362Z,32.30
2022-11-17T23:39:40.414Z,32.45
2022-11-17T23:42:14.623Z,32.65
2022-11-17T23:44:48.193Z,33.35
2022-11-17T23:47:22.589Z,35.55
2022-11-17T23:49:55.613Z,37.90
2022-11-17T23:52:22.775Z,38.22
2022-11-17T23:54:53.983Z,39.20
2022-11-17T23:57:33.265Z,39.47
